createdAt,value
2022-10-17T07:55:22.102Z,16.27
2022-10-17T07:58:45.331Z,16.57
2022-10-17T08:02:03.108Z,16.68
2022-10-17T08:05:05.521Z,16.76
2022-10-17T08:08:20.106Z,16.97
2022-10-17T08:11:35.110Z,17.32
2022-10-17T08:14:36.999Z,17.40
2022-10-17T08:21:45.164Z,17.77
2022-10-17T08:25:00.133Z,17.94
2022-10-17T08:28:09.025Z,18.16
2022-10-17T08:31:20.113Z,18.27
2022-10-17T08:34:35.105Z,18.49
2022-10-17T08:37:50.118Z,18.57
2022-10-17T08:40:58.132Z,18.76
2022-10-17T08:44:58.143Z,18.82
2022-10-17T08:48:09.143Z,19.09
2022-10-17T08:51:27.117Z,19.12
2022-10-17T08:54:47.131Z,19.25
2022-10-17T08:58:39.132Z,19.35
2022-10-17T09:02:30.158Z,19.52
2022-10-17T09:05:31.955Z,19.45
2022-10-17T09:09:11.109Z,19.55
2022-10-17T09:16:51.124Z,19.79
2022-10-17T09:20:19.225Z,19.89
2022-10-17T09:23:44.191Z,20.02
2022-10-17T09:27:01.148Z,20.35
2022-10-17T09:30:47.588Z,20.40
2022-10-17T09:33:54.680Z,20.67
2022-10-17T09:37:11.347Z,20.76
2022-10-17T09:40:33.465Z,20.80
2022-10-17T09:43:35.381Z,20.69
2022-10-17T09:47:05.157Z,20.80
2022-10-17T09:50:28.024Z,20.79
2022-10-17T09:53:49.188Z,20.91
2022-10-17T09:57:15.281Z,21.03
2022-10-17T10:00:35.450Z,21.13
2022-10-17T10:03:45.275Z,21.18
2022-10-17T10:07:06.034Z,21.12
2022-10-17T10:18:02.213Z,21.19
2022-10-17T10:25:23.138Z,20.73
2022-10-17T11:59:16.141Z,21.16
2022-10-17T12:06:56.188Z,21.06
2022-10-17T12:14:51.205Z,21.19
2022-10-17T12:18:04.784Z,21.01
2022-10-17T14:04:20.384Z,20.51
2022-10-17T14:10:59.205Z,20.37
2022-10-17T14:14:26.169Z,20.38
2022-10-17T14:25:46.225Z,20.37
2022-10-17T14:33:43.275Z,20.36
2022-10-17T14:45:00.209Z,20.29
2022-10-17T14:48:25.217Z,20.15
2022-10-17T14:51:40.173Z,20.07
2022-10-17T14:55:07.223Z,19.92
2022-10-17T14:58:22.722Z,19.83
2022-10-17T15:01:31.210Z,19.72
2022-10-17T15:12:32.407Z,19.18
2022-10-17T15:15:49.994Z,19.00
2022-10-17T15:18:59.227Z,18.88
2022-10-17T15:22:08.345Z,18.75
2022-10-17T15:25:17.232Z,18.65
2022-10-17T15:28:32.315Z,18.51
2022-10-17T15:31:40.236Z,18.42
2022-10-17T15:34:48.822Z,18.30
2022-10-17T15:38:03.232Z,18.17
2022-10-17T15:41:18.252Z,18.02
2022-10-17T15:44:26.805Z,17.92
2022-10-17T15:47:38.236Z,17.81
2022-10-17T15:50:46.894Z,17.68
2022-10-17T15:54:01.349Z,17.56
2022-10-17T15:57:10.301Z,17.43
2022-10-17T16:00:22.846Z,17.31
2022-10-17T16:03:37.222Z,17.19
2022-10-17T16:06:39.379Z,17.10
2022-10-17T16:09:55.231Z,17.03
2022-10-17T16:13:24.207Z,16.96
2022-10-17T16:16:26.277Z,16.82
2022-10-17T16:19:41.255Z,16.73
2022-10-17T16:22:50.897Z,16.63
2022-10-17T16:25:59.210Z,16.55
2022-10-17T16:29:08.353Z,16.46
2022-10-17T16:32:23.236Z,16.33
2022-10-17T16:35:31.679Z,16.23
2022-10-17T16:38:49.231Z,16.13
2022-10-17T16:41:58.720Z,16.02
2022-10-17T16:45:07.249Z,15.92
2022-10-17T16:48:15.814Z,15.86
2022-10-17T16:51:32.279Z,15.76
2022-10-17T16:54:47.319Z,15.68
2022-10-17T16:57:55.244Z,15.59
2022-10-17T17:01:06.798Z,15.53
2022-10-17T17:04:15.324Z,15.47
2022-10-17T17:07:30.671Z,15.43
2022-10-17T17:10:44.689Z,15.39
2022-10-17T17:14:06.250Z,15.27
2022-10-17T17:17:15.375Z,15.29
2022-10-17T17:20:40.708Z,15.26
2022-10-17T17:23:57.306Z,15.25
2022-10-17T17:26:59.745Z,15.22
2022-10-17T17:30:15.685Z,15.17
2022-10-17T17:33:32.454Z,15.15
2022-10-17T17:36:36.944Z,15.11
2022-10-17T17:39:52.733Z,15.07
2022-10-17T17:43:08.666Z,15.04
2022-10-17T17:46:11.740Z,15.01
2022-10-17T17:49:28.224Z,14.96
2022-10-17T17:52:43.421Z,14.90
2022-10-17T17:56:03.580Z,14.85
2022-10-17T17:59:19.341Z,14.82
2022-10-17T18:02:21.704Z,14.78
2022-10-17T18:05:37.264Z,14.75
2022-10-17T18:08:49.013Z,14.72
2022-10-17T18:11:58.607Z,14.68
2022-10-17T18:15:13.995Z,14.65
2022-10-17T18:18:33.716Z,14.58
2022-10-17T18:21:43.575Z,14.53
2022-10-17T18:24:52.633Z,14.50
2022-10-17T18:28:08.634Z,14.45
2022-10-17T18:31:19.860Z,14.40
2022-10-17T18:34:36.261Z,14.37
2022-10-17T18:37:51.704Z,14.33
2022-10-17T18:41:09.563Z,14.30
2022-10-17T18:44:25.554Z,14.27
2022-10-17T18:47:34.265Z,14.22
2022-10-17T18:50:49.445Z,14.17
2022-10-17T18:53:58.860Z,14.15
2022-10-17T18:57:08.717Z,14.08
2022-10-17T19:00:25.584Z,14.08
2022-10-17T19:03:28.508Z,14.03
2022-10-17T19:06:44.234Z,13.99
2022-10-17T19:10:00.249Z,13.96
2022-10-17T19:13:09.260Z,13.94
2022-10-17T19:16:36.340Z,13.90
2022-10-17T19:19:52.684Z,13.83
2022-10-17T19:23:07.714Z,13.80
2022-10-17T19:26:22.254Z,13.76
2022-10-17T19:29:27.457Z,13.68
2022-10-17T19:32:42.639Z,13.58
2022-10-17T19:35:56.154Z,13.55
2022-10-17T19:39:15.680Z,13.52
2022-10-17T19:42:24.345Z,13.48
2022-10-17T19:45:39.261Z,13.46
2022-10-17T19:48:56.284Z,13.42
2022-10-17T19:52:11.255Z,13.37
2022-10-17T19:55:19.914Z,13.33
2022-10-17T19:58:28.372Z,13.24
2022-10-17T20:01:44.496Z,13.17
2022-10-17T20:04:54.772Z,13.15
2022-10-17T20:08:28.632Z,13.06
2022-10-17T20:11:43.266Z,13.05
2022-10-17T20:14:58.493Z,12.97
2022-10-17T20:18:14.247Z,12.92
2022-10-17T20:21:32.251Z,12.92
2022-10-17T20:24:40.825Z,12.92
2022-10-17T20:27:55.255Z,12.87
2022-10-17T20:31:06.429Z,12.84
2022-10-17T20:34:23.255Z,12.78
2022-10-17T20:37:31.505Z,12.76
2022-10-17T20:40:40.654Z,12.72
2022-10-17T20:43:49.260Z,12.67
2022-10-17T20:47:04.690Z,12.67
2022-10-17T20:50:14.900Z,12.68
2022-10-17T20:53:37.112Z,12.63
2022-10-17T20:56:52.261Z,12.57
2022-10-17T21:00:00.858Z,12.49
2022-10-17T21:03:09.240Z,12.48
2022-10-17T21:06:18.744Z,12.46
2022-10-17T21:09:34.267Z,12.43
2022-10-17T21:12:53.085Z,12.46
2022-10-17T21:16:18.213Z,12.47
2022-10-17T21:19:27.235Z,12.43
2022-10-17T21:22:42.276Z,12.43
2022-10-17T21:25:50.807Z,12.35
2022-10-17T21:28:59.281Z,12.38
2022-10-17T21:32:15.532Z,12.39
2022-10-17T21:35:40.244Z,12.36
2022-10-17T21:38:57.335Z,12.40
2022-10-17T21:42:05.877Z,12.37
2022-10-17T21:45:15.603Z,12.37
2022-10-17T21:48:31.257Z,12.34
2022-10-17T21:51:33.371Z,12.33
2022-10-17T21:54:48.253Z,12.33
2022-10-17T21:57:56.835Z,12.29
2022-10-17T22:01:26.316Z,12.28
2022-10-17T22:04:35.245Z,12.25
2022-10-17T22:07:44.008Z,12.19
2022-10-17T22:10:53.240Z,12.20
2022-10-17T22:14:12.896Z,12.15
2022-10-17T22:17:27.362Z,12.05
2022-10-17T22:20:41.234Z,12.01
2022-10-17T22:24:03.406Z,11.98
2022-10-17T22:27:11.274Z,11.97
2022-10-17T22:30:20.557Z,11.97
2022-10-17T22:33:35.269Z,11.89
2022-10-17T22:36:44.004Z,11.86
2022-10-17T22:39:59.256Z,11.83
2022-10-17T22:43:01.121Z,11.79
2022-10-17T22:46:18.275Z,11.79
2022-10-17T22:49:26.246Z,11.76
2022-10-17T22:52:34.817Z,11.73
2022-10-17T22:55:43.249Z,11.73
2022-10-17T22:58:53.313Z,11.73
2022-10-17T23:02:08.256Z,11.72
2022-10-17T23:05:11.033Z,11.68
2022-10-17T23:08:30.235Z,11.65
2022-10-17T23:11:45.263Z,11.59
2022-10-17T23:15:07.280Z,11.57
2022-10-17T23:18:16.099Z,11.54
2022-10-17T23:21:31.256Z,11.51
2022-10-17T23:24:39.761Z,11.48
2022-10-17T23:27:48.263Z,11.48
2022-10-17T23:31:15.023Z,11.46
2022-10-17T23:34:30.262Z,11.44
2022-10-17T23:37:32.569Z,11.45
2022-10-17T23:40:47.262Z,11.46
2022-10-17T23:43:55.253Z,11.48
2022-10-17T23:47:10.243Z,11.48
2022-10-17T23:50:12.158Z,11.48
2022-10-17T23:53:27.267Z,11.44
2022-10-17T23:56:35.825Z,11.45
2022-10-17T23:59:50.243Z,11.43
